createdAt,value
2022-12-03T00:01:02.430Z,67.99
2022-12-03T00:02:27.305Z,67.92
2022-12-03T00:03:48.249Z,67.95
2022-12-03T00:05:11.406Z,68.00
2022-12-03T00:06:44.761Z,67.99
2022-12-03T00:08:16.715Z,67.94
2022-12-03T00:09:38.366Z,67.73
2022-12-03T00:11:00.351Z,67.96
2022-12-03T00:12:31.522Z,67.93
2022-12-03T00:13:53.713Z,67.77
2022-12-03T00:15:16.357Z,68.06
2022-12-03T00:16:37.279Z,67.59
2022-12-03T00:17:59.332Z,67.69
2022-12-03T00:19:21.469Z,67.67
2022-12-03T00:20:43.364Z,67.77
2022-12-03T00:22:05.862Z,67.71
2022-12-03T00:23:28.115Z,67.78
2022-12-03T00:24:48.794Z,67.76
2022-12-03T00:26:10.838Z,67.92
2022-12-03T00:27:33.132Z,67.85
2022-12-03T00:28:56.192Z,67.89
2022-12-03T00:30:19.894Z,68.02
2022-12-03T00:31:43.359Z,67.98
2022-12-03T00:33:07.680Z,68.43
2022-12-03T00:34:29.809Z,68.00
2022-12-03T00:35:50.458Z,67.96
2022-12-03T00:37:14.364Z,67.97
2022-12-03T00:38:36.878Z,68.08
2022-12-03T00:39:59.292Z,68.10
2022-12-03T00:41:20.219Z,68.15
2022-12-03T00:42:48.517Z,68.27
2022-12-03T00:44:14.706Z,68.37
2022-12-03T00:45:48.171Z,68.27
2022-12-03T00:47:14.749Z,68.63
2022-12-03T00:48:37.750Z,68.30
2022-12-03T00:50:03.426Z,68.33
2022-12-03T00:51:27.311Z,68.60
2022-12-03T00:52:59.540Z,68.05
2022-12-03T00:54:20.336Z,68.43
2022-12-03T00:55:48.598Z,68.37
2022-12-03T00:57:09.633Z,68.46
2022-12-03T00:58:33.819Z,68.35
2022-12-03T00:59:57.782Z,68.35
2022-12-03T01:01:34.744Z,68.42
2022-12-03T01:03:02.481Z,68.48
2022-12-03T01:04:24.498Z,68.64
2022-12-03T01:05:49.612Z,68.46
2022-12-03T01:07:18.359Z,68.58
2022-12-03T01:08:43.592Z,68.22
2022-12-03T01:10:07.015Z,68.26
2022-12-03T01:11:42.353Z,68.53
2022-12-03T01:13:07.692Z,68.35
2022-12-03T01:14:31.605Z,68.26
2022-12-03T01:15:53.691Z,68.32
2022-12-03T01:17:18.974Z,68.34
2022-12-03T01:18:40.771Z,68.24
2022-12-03T01:20:04.695Z,68.39
2022-12-03T01:21:26.943Z,68.40
2022-12-03T01:22:49.099Z,68.46
2022-12-03T01:24:11.115Z,68.27
2022-12-03T01:25:35.986Z,68.50
2022-12-03T01:27:00.681Z,68.35
2022-12-03T01:28:21.421Z,68.47
2022-12-03T01:29:43.700Z,68.42
2022-12-03T01:31:23.487Z,68.36
2022-12-03T01:32:47.489Z,68.38
2022-12-03T01:34:14.128Z,68.32
2022-12-03T01:35:36.406Z,68.48
2022-12-03T01:36:57.017Z,68.50
2022-12-03T01:38:21.266Z,68.56
2022-12-03T01:39:45.433Z,68.61
2022-12-03T01:41:12.060Z,68.48
2022-12-03T01:42:44.571Z,68.63
2022-12-03T01:44:16.487Z,68.67
2022-12-03T01:45:38.995Z,68.78
2022-12-03T01:47:02.882Z,68.70
2022-12-03T01:48:25.576Z,68.96
2022-12-03T01:49:51.423Z,68.91
2022-12-03T01:51:14.031Z,68.82
2022-12-03T01:52:40.605Z,68.69
2022-12-03T01:54:05.030Z,68.87
2022-12-03T01:55:29.352Z,68.65
2022-12-03T01:56:51.027Z,68.71
2022-12-03T01:58:15.554Z,68.84
2022-12-03T02:01:28.051Z,68.87
2022-12-03T02:02:53.061Z,68.86
2022-12-03T02:04:25.689Z,68.82
2022-12-03T02:05:49.293Z,68.91
2022-12-03T02:07:28.834Z,68.86
2022-12-03T02:08:50.381Z,68.79
2022-12-03T02:10:25.354Z,68.70
2022-12-03T02:11:55.356Z,68.72
2022-12-03T02:13:24.409Z,68.92
2022-12-03T02:14:47.720Z,68.96
2022-12-03T02:16:16.022Z,69.03
2022-12-03T02:17:39.508Z,68.98
2022-12-03T02:19:00.759Z,69.06
2022-12-03T02:20:26.504Z,69.30
2022-12-03T02:21:57.645Z,69.30
2022-12-03T02:23:31.438Z,69.08
2022-12-03T02:25:00.565Z,69.21
2022-12-03T02:26:25.579Z,69.28
2022-12-03T02:27:49.211Z,69.37
2022-12-03T02:29:10.455Z,69.11
2022-12-03T02:30:33.034Z,69.40
2022-12-03T02:31:54.214Z,69.35
2022-12-03T02:33:16.722Z,69.09
2022-12-03T02:34:52.351Z,69.01
2022-12-03T02:36:15.618Z,68.95
2022-12-03T02:37:37.929Z,69.27
2022-12-03T02:39:01.446Z,69.27
2022-12-03T02:40:27.446Z,69.34
2022-12-03T02:42:08.125Z,69.37
2022-12-03T02:43:30.410Z,69.41
2022-12-03T02:44:52.403Z,69.56
2022-12-03T02:46:14.573Z,69.44
2022-12-03T02:47:40.863Z,69.54
2022-12-03T02:49:03.706Z,69.41
2022-12-03T02:50:30.385Z,69.56
2022-12-03T02:51:51.285Z,69.92
2022-12-03T02:53:16.580Z,70.10
2022-12-03T02:54:37.943Z,70.19
2022-12-03T02:56:04.681Z,70.03
2022-12-03T02:57:27.348Z,69.94
2022-12-03T02:58:53.170Z,70.48
2022-12-03T03:00:20.024Z,70.14
2022-12-03T03:01:45.137Z,70.32
2022-12-03T03:03:09.891Z,70.20
2022-12-03T03:04:36.086Z,70.18
2022-12-03T03:06:03.728Z,70.04
2022-12-03T03:07:31.996Z,69.85
2022-12-03T03:08:54.524Z,70.25
2022-12-03T03:10:19.472Z,70.34
2022-12-03T03:11:43.139Z,70.14
2022-12-03T03:13:11.371Z,70.18
2022-12-03T03:14:34.769Z,70.30
2022-12-03T03:15:57.589Z,70.52
2022-12-03T03:17:20.253Z,70.78
2022-12-03T03:18:41.759Z,70.52
2022-12-03T03:20:04.728Z,70.55
2022-12-03T03:21:26.042Z,70.25
2022-12-03T03:22:48.644Z,70.61
2022-12-03T03:24:10.709Z,70.46
2022-12-03T03:25:35.471Z,70.69
2022-12-03T03:26:57.705Z,70.63
2022-12-03T03:28:20.355Z,70.44
2022-12-03T03:29:42.532Z,70.44
2022-12-03T03:31:05.549Z,70.50
2022-12-03T03:32:29.407Z,70.63
2022-12-03T03:33:52.246Z,70.43
2022-12-03T03:35:14.908Z,70.68
2022-12-03T03:36:37.470Z,70.53
2022-12-03T03:37:59.212Z,70.62
2022-12-03T03:39:23.847Z,70.74
2022-12-03T03:40:45.964Z,70.64
2022-12-03T03:42:10.325Z,70.66
2022-12-03T03:43:36.987Z,70.31
2022-12-03T03:45:01.094Z,70.67
2022-12-03T03:46:42.891Z,70.49
2022-12-03T03:48:05.320Z,70.64
2022-12-03T03:49:27.486Z,70.49
2022-12-03T03:50:50.701Z,70.72
2022-12-03T03:52:13.565Z,70.35
2022-12-03T03:53:34.964Z,70.50
2022-12-03T03:54:56.892Z,70.67
2022-12-03T03:56:20.736Z,70.45
2022-12-03T03:57:42.796Z,70.26
2022-12-03T03:59:06.758Z,70.17
2022-12-03T04:00:28.107Z,70.32
2022-12-03T04:01:50.408Z,70.32
2022-12-03T04:03:11.791Z,70.33
2022-12-03T04:04:37.955Z,70.48
2022-12-03T04:06:00.089Z,70.21
2022-12-03T04:07:25.705Z,70.21
2022-12-03T04:08:47.915Z,70.22
2022-12-03T04:10:39.831Z,70.49
2022-12-03T04:12:19.801Z,70.48
2022-12-03T04:13:41.138Z,70.21
2022-12-03T04:15:05.544Z,70.40
2022-12-03T04:16:28.002Z,70.44
2022-12-03T04:18:09.569Z,70.25
2022-12-03T04:19:32.095Z,70.55
2022-12-03T04:21:14.101Z,70.58
2022-12-03T04:22:41.294Z,70.85
2022-12-03T04:24:04.109Z,70.82
2022-12-03T04:25:46.892Z,70.62
2022-12-03T04:27:27.191Z,70.78
2022-12-03T04:28:51.072Z,70.60
2022-12-03T04:30:14.749Z,70.69
2022-12-03T04:31:54.305Z,70.61
2022-12-03T04:33:33.753Z,70.62
2022-12-03T04:35:13.870Z,70.73
2022-12-03T04:36:36.663Z,70.79
2022-12-03T04:37:58.606Z,70.69
2022-12-03T04:39:19.850Z,70.70
2022-12-03T04:40:59.370Z,70.79
2022-12-03T04:42:21.488Z,70.74
2022-12-03T04:43:57.419Z,70.57
2022-12-03T04:45:21.076Z,70.82
2022-12-03T04:46:44.982Z,70.71
2022-12-03T04:48:07.967Z,70.72
2022-12-03T04:49:33.489Z,70.72
2022-12-03T04:50:55.478Z,70.77
2022-12-03T04:52:18.358Z,70.72
2022-12-03T04:53:45.899Z,70.70
2022-12-03T04:55:08.641Z,70.78
2022-12-03T04:56:29.689Z,70.65
2022-12-03T04:57:51.727Z,70.66
2022-12-03T04:59:16.352Z,70.38
2022-12-03T05:00:40.417Z,70.79
2022-12-03T05:02:01.221Z,70.51
2022-12-03T05:03:23.039Z,70.69
2022-12-03T05:04:44.087Z,70.74
2022-12-03T05:06:06.065Z,70.67
2022-12-03T05:07:30.350Z,70.75
2022-12-03T05:08:52.392Z,70.66
2022-12-03T05:10:14.823Z,70.70
2022-12-03T05:11:35.902Z,70.56
2022-12-03T05:12:58.080Z,70.56
2022-12-03T05:14:20.477Z,70.56
2022-12-03T05:15:42.669Z,70.56
2022-12-03T05:17:04.953Z,70.26
2022-12-03T05:18:25.995Z,70.34
2022-12-03T05:20:05.102Z,70.23
2022-12-03T05:21:27.228Z,70.13
2022-12-03T05:22:48.347Z,70.41
2022-12-03T05:24:10.273Z,70.37
2022-12-03T05:25:31.040Z,70.28
2022-12-03T05:26:53.087Z,70.26
2022-12-03T05:28:14.492Z,70.18
2022-12-03T05:29:37.030Z,70.25
2022-12-03T05:31:03.589Z,70.30
2022-12-03T05:32:25.675Z,70.42
2022-12-03T05:33:47.807Z,70.63
2022-12-03T05:35:10.739Z,70.53
2022-12-03T05:36:32.521Z,70.71
2022-12-03T05:37:54.089Z,70.82
2022-12-03T05:39:16.279Z,70.75
2022-12-03T05:40:37.472Z,70.84
2022-12-03T05:42:17.191Z,70.74
2022-12-03T05:43:39.085Z,70.74
2022-12-03T05:45:00.248Z,70.77
2022-12-03T05:46:23.668Z,70.62
2022-12-03T05:47:45.171Z,70.42
2022-12-03T05:49:07.440Z,70.55
2022-12-03T05:50:30.772Z,70.67
2022-12-03T05:51:58.237Z,70.59
2022-12-03T05:53:21.388Z,70.38
2022-12-03T05:54:43.404Z,70.70
2022-12-03T05:56:05.935Z,70.42
2022-12-03T05:57:29.407Z,70.38
2022-12-03T05:58:51.715Z,70.66
2022-12-03T06:00:14.653Z,70.50
2022-12-03T06:01:37.556Z,70.35
2022-12-03T06:02:59.579Z,70.22
2022-12-03T06:04:21.826Z,70.27
2022-12-03T06:05:43.987Z,70.38
2022-12-03T06:07:12.517Z,70.59
2022-12-03T06:08:36.057Z,70.28
2022-12-03T06:09:57.370Z,70.28
2022-12-03T06:11:19.167Z,70.48
2022-12-03T06:12:50.573Z,70.47
2022-12-03T06:14:12.729Z,70.54
2022-12-03T06:15:42.124Z,70.65
2022-12-03T06:17:07.205Z,70.46
2022-12-03T06:18:32.387Z,70.48
2022-12-03T06:19:54.560Z,70.60
2022-12-03T06:21:16.766Z,70.13
2022-12-03T06:22:40.436Z,70.19
2022-12-03T06:24:03.139Z,70.07
2022-12-03T06:25:25.012Z,70.45
2022-12-03T06:26:47.341Z,70.26
2022-12-03T06:28:09.806Z,70.62
2022-12-03T06:29:31.212Z,70.44
2022-12-03T06:30:53.471Z,70.52
2022-12-03T06:32:17.051Z,70.48
2022-12-03T06:33:38.289Z,70.57
2022-12-03T06:35:02.936Z,70.62
2022-12-03T06:36:26.247Z,70.43
2022-12-03T06:37:48.701Z,70.23
2022-12-03T06:39:17.003Z,70.48
2022-12-03T06:40:42.852Z,70.50
2022-12-03T06:42:06.623Z,70.37
2022-12-03T06:43:29.029Z,70.46
2022-12-03T06:44:50.894Z,70.70
2022-12-03T06:46:17.617Z,70.67
2022-12-03T06:47:41.800Z,70.67
2022-12-03T06:49:03.339Z,70.57
2022-12-03T06:50:25.841Z,70.39
2022-12-03T06:51:47.192Z,70.47
2022-12-03T06:53:15.448Z,70.40
2022-12-03T06:54:37.954Z,70.49
2022-12-03T06:56:03.359Z,70.66
2022-12-03T06:57:25.327Z,70.66
2022-12-03T06:58:47.633Z,70.56
2022-12-03T07:00:11.293Z,70.48
2022-12-03T07:01:32.917Z,70.71
2022-12-03T07:02:56.796Z,70.76
2022-12-03T07:04:17.873Z,70.65
2022-12-03T07:05:43.960Z,70.83
2022-12-03T07:07:09.929Z,70.75
2022-12-03T07:08:41.125Z,70.62
2022-12-03T07:10:03.472Z,70.93
2022-12-03T07:11:39.828Z,70.66
2022-12-03T07:13:02.435Z,70.73
2022-12-03T07:14:25.059Z,70.73
2022-12-03T07:15:47.116Z,70.66
2022-12-03T07:17:09.217Z,70.40
2022-12-03T07:18:34.117Z,70.40
2022-12-03T07:19:56.241Z,70.49
2022-12-03T07:21:17.682Z,70.52
2022-12-03T07:22:40.776Z,70.57
2022-12-03T07:24:02.969Z,70.45
2022-12-03T07:25:25.239Z,70.31
2022-12-03T07:26:49.859Z,70.59
2022-12-03T07:28:14.191Z,70.56
2022-12-03T07:29:36.731Z,70.65
2022-12-03T07:31:01.830Z,70.80
2022-12-03T07:32:24.462Z,70.53
2022-12-03T07:33:51.535Z,70.58
2022-12-03T07:35:13.727Z,70.60
2022-12-03T07:36:35.777Z,70.67
2022-12-03T07:37:58.090Z,70.64
2022-12-03T07:39:22.335Z,70.42
2022-12-03T07:40:43.176Z,70.30
2022-12-03T07:42:09.357Z,70.57
2022-12-03T07:43:35.072Z,70.46
2022-12-03T07:45:01.985Z,70.15
2022-12-03T07:46:24.486Z,70.30
2022-12-03T07:47:46.953Z,70.14
2022-12-03T07:49:12.345Z,70.15
2022-12-03T07:50:33.410Z,70.31
2022-12-03T07:51:57.102Z,70.41
2022-12-03T07:53:18.403Z,70.29
2022-12-03T07:54:40.699Z,70.31
2022-12-03T07:56:05.108Z,70.08
2022-12-03T07:57:27.380Z,70.05
2022-12-03T07:58:52.967Z,70.00
2022-12-03T08:00:16.614Z,70.20
2022-12-03T08:01:38.863Z,70.16
2022-12-03T08:02:59.999Z,70.09
2022-12-03T08:04:23.650Z,70.07
2022-12-03T08:05:45.596Z,70.42
2022-12-03T08:07:07.738Z,70.49
2022-12-03T08:08:29.064Z,70.32
2022-12-03T08:09:51.766Z,70.53
2022-12-03T08:11:18.391Z,70.72
2022-12-03T08:12:42.352Z,70.69
2022-12-03T08:14:09.441Z,70.94
2022-12-03T08:15:38.481Z,71.09
2022-12-03T08:17:02.350Z,70.81
2022-12-03T08:18:24.532Z,70.77
2022-12-03T08:19:49.030Z,70.88
2022-12-03T08:21:13.145Z,70.53
2022-12-03T08:22:35.023Z,70.68
2022-12-03T08:23:57.990Z,70.66
2022-12-03T08:25:27.199Z,70.50
2022-12-03T08:26:50.185Z,70.17
2022-12-03T08:28:20.360Z,70.13
2022-12-03T08:29:45.298Z,70.18
2022-12-03T08:31:18.753Z,70.07
2022-12-03T08:32:41.336Z,69.93
2022-12-03T08:34:14.873Z,70.24
2022-12-03T08:35:39.654Z,70.22
2022-12-03T08:39:19.588Z,70.07
2022-12-03T08:41:00.453Z,70.14
2022-12-03T08:42:51.353Z,70.17
2022-12-03T08:44:27.145Z,69.83
2022-12-03T08:45:50.025Z,70.15
2022-12-03T08:47:17.639Z,69.97
2022-12-03T08:48:44.043Z,70.05
2022-12-03T08:50:29.208Z,69.60
2022-12-03T08:51:57.978Z,69.91
2022-12-03T08:53:31.629Z,69.72
2022-12-03T08:54:57.471Z,69.48
2022-12-03T08:56:25.589Z,69.50
2022-12-03T08:57:47.817Z,69.73
2022-12-03T08:59:25.131Z,69.21
2022-12-03T09:00:47.430Z,69.47
2022-12-03T09:02:20.104Z,69.66
2022-12-03T09:03:54.356Z,69.41
2022-12-03T09:05:26.774Z,69.28
2022-12-03T09:07:12.265Z,69.16
2022-12-03T09:08:40.903Z,69.40
2022-12-03T09:10:02.821Z,69.17
2022-12-03T09:11:25.289Z,69.23
2022-12-03T09:12:47.419Z,69.08
2022-12-03T09:14:13.699Z,69.21
2022-12-03T09:15:41.993Z,69.20
2022-12-03T09:17:09.242Z,69.15
2022-12-03T09:18:32.439Z,69.01
2022-12-03T09:20:01.448Z,69.20
2022-12-03T09:21:25.027Z,69.20
2022-12-03T09:22:50.862Z,69.37
2022-12-03T09:24:13.854Z,69.28
2022-12-03T09:25:35.920Z,69.02
2022-12-03T09:26:57.961Z,68.54
2022-12-03T09:28:22.699Z,68.49
2022-12-03T09:29:47.907Z,68.18
2022-12-03T09:31:10.533Z,68.20
2022-12-03T09:32:32.901Z,68.39
2022-12-03T09:33:55.299Z,68.67
2022-12-03T09:35:23.288Z,68.63
2022-12-03T09:36:45.543Z,68.67
2022-12-03T09:38:11.169Z,68.56
2022-12-03T09:39:38.277Z,68.45
2022-12-03T09:41:03.294Z,68.42
2022-12-03T09:42:36.603Z,68.31
2022-12-03T09:44:08.591Z,68.32
2022-12-03T09:45:37.009Z,68.12
2022-12-03T09:47:03.832Z,68.07
2022-12-03T09:48:26.242Z,67.98
2022-12-03T09:49:51.533Z,67.86
2022-12-03T09:51:17.101Z,68.10
2022-12-03T09:52:39.074Z,68.02
2022-12-03T09:54:04.419Z,67.90
2022-12-03T09:55:29.229Z,67.94
2022-12-03T09:56:54.480Z,68.05
2022-12-03T09:58:18.480Z,68.12
2022-12-03T09:59:41.067Z,68.00
2022-12-03T10:01:03.623Z,68.00
2022-12-03T10:02:30.420Z,68.08
2022-12-03T10:03:53.545Z,67.91
2022-12-03T10:05:16.693Z,68.12
2022-12-03T10:06:45.288Z,68.03
2022-12-03T10:08:10.411Z,67.87
2022-12-03T10:09:34.457Z,67.73
2022-12-03T10:11:00.440Z,67.60
2022-12-03T10:12:26.282Z,67.88
2022-12-03T10:13:50.606Z,67.82
2022-12-03T10:15:17.935Z,67.68
2022-12-03T10:16:41.154Z,67.54
2022-12-03T10:18:14.631Z,67.47
2022-12-03T10:19:39.765Z,67.31
2022-12-03T10:21:02.217Z,67.56
2022-12-03T10:22:25.323Z,67.52
2022-12-03T10:23:55.247Z,67.49
2022-12-03T10:25:20.951Z,67.39
2022-12-03T10:26:43.680Z,67.05
2022-12-03T10:28:08.549Z,67.14
2022-12-03T10:29:34.362Z,67.41
2022-12-03T10:30:56.765Z,67.23
2022-12-03T10:32:18.993Z,66.92
2022-12-03T10:33:44.922Z,66.88
2022-12-03T10:35:12.238Z,66.92
2022-12-03T10:36:36.603Z,67.28
2022-12-03T10:38:01.316Z,67.08
2022-12-03T10:39:24.942Z,67.10
2022-12-03T10:40:50.936Z,67.04
2022-12-03T10:42:17.042Z,66.94
2022-12-03T10:43:41.551Z,67.13
2022-12-03T10:45:24.531Z,67.03
2022-12-03T10:46:47.900Z,66.79
2022-12-03T10:48:14.988Z,66.65
2022-12-03T10:49:37.594Z,66.81
2022-12-03T10:51:05.452Z,66.92
2022-12-03T10:52:27.679Z,66.97
2022-12-03T10:53:50.967Z,66.75
2022-12-03T10:55:14.623Z,67.01
2022-12-03T10:56:38.189Z,67.02
2022-12-03T10:58:06.101Z,67.10
2022-12-03T10:59:32.553Z,67.04
2022-12-03T11:00:57.821Z,67.09
2022-12-03T11:02:24.004Z,67.05
2022-12-03T11:03:47.067Z,67.15
2022-12-03T11:05:14.229Z,67.38
2022-12-03T11:06:36.311Z,67.25
2022-12-03T11:07:58.568Z,67.26
2022-12-03T11:09:23.251Z,67.39
2022-12-03T11:10:45.739Z,67.47
2022-12-03T11:12:18.938Z,67.53
2022-12-03T11:13:47.815Z,67.45
2022-12-03T11:15:16.808Z,67.69
2022-12-03T11:17:09.185Z,67.44
2022-12-03T11:19:00.401Z,67.48
2022-12-03T11:21:06.974Z,67.29
2022-12-03T11:22:44.812Z,67.23
2022-12-03T11:24:21.185Z,67.23
2022-12-03T11:25:55.219Z,67.33
2022-12-03T11:28:13.656Z,67.51
2022-12-03T11:31:08.301Z,67.64
2022-12-03T11:35:45.610Z,67.20
2022-12-03T11:37:41.752Z,67.38
2022-12-03T11:39:08.284Z,67.25
2022-12-03T11:40:32.460Z,67.27
2022-12-03T11:42:41.769Z,67.21
2022-12-03T11:44:32.926Z,67.45
2022-12-03T11:46:04.218Z,67.48
2022-12-03T11:47:28.892Z,67.37
2022-12-03T11:49:06.768Z,67.60
2022-12-03T11:50:40.053Z,67.60
2022-12-03T11:52:08.824Z,67.85
2022-12-03T11:53:34.508Z,67.79
2022-12-03T11:55:21.963Z,67.44
2022-12-03T11:56:47.984Z,67.57
2022-12-03T11:58:18.711Z,67.40
2022-12-03T12:00:05.194Z,67.32
2022-12-03T12:01:43.680Z,67.14
2022-12-03T12:03:28.461Z,67.12
2022-12-03T12:04:52.101Z,67.27
2022-12-03T12:06:21.930Z,67.27
2022-12-03T12:07:51.523Z,67.36
2022-12-03T12:09:17.033Z,67.14
2022-12-03T12:10:41.147Z,67.24
2022-12-03T12:12:32.968Z,67.28
2022-12-03T12:13:57.177Z,67.52
2022-12-03T12:15:43.185Z,67.39
2022-12-03T12:17:33.758Z,67.32
2022-12-03T12:18:56.410Z,67.41
2022-12-03T12:20:27.329Z,67.28
2022-12-03T12:21:51.912Z,67.41
2022-12-03T12:23:28.179Z,67.36
2022-12-03T12:24:51.868Z,67.38
2022-12-03T12:26:16.264Z,67.31
2022-12-03T12:27:45.291Z,67.52
2022-12-03T12:29:07.435Z,67.55
2022-12-03T12:30:29.654Z,67.51
2022-12-03T12:31:53.953Z,67.47
2022-12-03T12:33:23.398Z,67.46
2022-12-03T12:34:50.571Z,67.29
2022-12-03T12:36:13.121Z,67.24
2022-12-03T12:37:47.041Z,67.11
2022-12-03T12:39:11.745Z,67.01
2022-12-03T12:40:35.656Z,67.07
2022-12-03T12:41:57.414Z,66.79
2022-12-03T12:43:27.036Z,66.76
2022-12-03T12:44:50.384Z,66.67
2022-12-03T12:48:04.429Z,66.56
2022-12-03T12:49:29.363Z,66.71
2022-12-03T12:50:54.848Z,66.72
2022-12-03T12:52:16.741Z,66.87
2022-12-03T12:53:43.104Z,66.74
2022-12-03T12:55:09.646Z,66.75
2022-12-03T12:56:33.249Z,66.84
2022-12-03T12:57:57.786Z,66.60
2022-12-03T12:59:22.329Z,66.84
2022-12-03T13:00:48.034Z,66.75
2022-12-03T13:02:44.526Z,66.82
2022-12-03T13:04:12.737Z,66.96
2022-12-03T13:05:47.230Z,66.95
2022-12-03T13:07:10.541Z,67.19
2022-12-03T13:08:35.663Z,67.01
2022-12-03T13:09:58.463Z,67.13
2022-12-03T13:11:35.613Z,67.20
2022-12-03T13:12:56.376Z,67.18
2022-12-03T13:14:23.250Z,67.33
2022-12-03T13:15:49.768Z,67.13
2022-12-03T13:17:20.072Z,66.93
2022-12-03T13:18:46.456Z,67.15
2022-12-03T13:20:17.507Z,67.19
2022-12-03T13:21:44.196Z,67.20
2022-12-03T13:23:26.303Z,67.29
2022-12-03T13:24:51.680Z,67.36
2022-12-03T13:26:36.130Z,67.14
2022-12-03T13:28:04.335Z,67.23
2022-12-03T13:29:28.645Z,67.04
2022-12-03T13:30:51.407Z,67.01
2022-12-03T13:32:18.262Z,67.09
2022-12-03T13:33:39.984Z,66.96
2022-12-03T13:35:20.893Z,67.19
2022-12-03T13:36:55.386Z,67.29
2022-12-03T13:38:25.359Z,67.36
2022-12-03T13:39:52.210Z,67.20
2022-12-03T13:41:31.431Z,67.09
2022-12-03T13:42:55.309Z,67.17
2022-12-03T13:44:21.217Z,67.18
2022-12-03T13:45:46.200Z,67.17
2022-12-03T13:47:15.321Z,67.29
2022-12-03T13:48:37.052Z,67.43
2022-12-03T13:50:05.615Z,67.35
2022-12-03T13:51:31.349Z,67.49
2022-12-03T13:52:54.807Z,67.33
2022-12-03T13:54:22.814Z,67.31
2022-12-03T13:55:46.912Z,67.35
2022-12-03T13:57:09.230Z,67.43
2022-12-03T13:58:31.477Z,67.40
2022-12-03T13:59:54.295Z,67.74
2022-12-03T14:01:16.294Z,67.32
2022-12-03T14:02:39.174Z,67.39
2022-12-03T14:04:01.204Z,67.44
2022-12-03T14:05:23.192Z,67.59
2022-12-03T14:06:45.376Z,67.53
2022-12-03T14:08:09.692Z,67.69
2022-12-03T14:09:34.564Z,67.67
2022-12-03T14:11:05.949Z,67.65
2022-12-03T14:12:29.153Z,67.71
2022-12-03T14:14:09.878Z,67.97
2022-12-03T14:15:53.323Z,67.93
2022-12-03T14:17:17.110Z,67.89
2022-12-03T14:18:40.519Z,67.97
2022-12-03T14:20:08.465Z,67.97
2022-12-03T14:21:34.906Z,68.20
2022-12-03T14:22:59.443Z,68.01
2022-12-03T14:24:23.085Z,68.18
2022-12-03T14:25:45.224Z,68.08
2022-12-03T14:27:10.559Z,68.04
2022-12-03T14:28:36.535Z,68.13
2022-12-03T14:30:01.275Z,68.00
2022-12-03T14:31:23.457Z,68.13
2022-12-03T14:32:55.211Z,68.09
2022-12-03T14:34:17.275Z,68.22
2022-12-03T14:37:21.282Z,68.55
2022-12-03T14:38:58.164Z,68.28
2022-12-03T14:40:34.449Z,68.39
2022-12-03T14:42:15.855Z,68.47
2022-12-03T14:43:37.955Z,68.57
2022-12-03T14:45:00.028Z,68.50
2022-12-03T14:46:21.180Z,68.46
2022-12-03T14:47:42.938Z,68.55
2022-12-03T14:49:03.625Z,68.51
2022-12-03T14:50:25.867Z,68.45
2022-12-03T14:51:46.850Z,68.67
2022-12-03T14:53:08.811Z,68.77
2022-12-03T14:54:30.863Z,68.76
2022-12-03T14:55:55.929Z,68.75
2022-12-03T14:57:18.137Z,69.00
2022-12-03T14:58:38.934Z,69.01
2022-12-03T15:00:00.924Z,69.01
2022-12-03T15:01:23.695Z,68.83
2022-12-03T15:02:45.158Z,68.67
2022-12-03T15:04:09.889Z,68.94
2022-12-03T15:05:32.157Z,69.00
2022-12-03T15:06:54.381Z,68.91
2022-12-03T15:08:16.558Z,69.07
2022-12-03T15:09:42.556Z,69.12
2022-12-03T15:11:07.702Z,69.14
2022-12-03T15:12:29.593Z,69.12
2022-12-03T15:13:51.194Z,68.91
2022-12-03T15:15:13.433Z,68.83
2022-12-03T15:16:41.601Z,69.04
2022-12-03T15:18:03.817Z,69.00
2022-12-03T15:19:26.381Z,68.92
2022-12-03T15:20:47.443Z,69.02
2022-12-03T15:22:09.184Z,69.11
2022-12-03T15:23:38.335Z,69.15
2022-12-03T15:25:03.717Z,69.26
2022-12-03T15:26:31.410Z,69.36
2022-12-03T15:27:53.896Z,69.36
2022-12-03T15:29:15.860Z,69.13
2022-12-03T15:30:38.106Z,68.96
2022-12-03T15:32:01.347Z,69.14
2022-12-03T15:33:26.287Z,69.00
2022-12-03T15:34:52.284Z,69.00
2022-12-03T15:36:15.287Z,69.14
2022-12-03T15:37:45.880Z,69.02
2022-12-03T15:39:08.127Z,68.78
2022-12-03T15:40:30.362Z,68.88
2022-12-03T15:42:03.404Z,69.09
2022-12-03T15:43:28.841Z,69.03
2022-12-03T15:44:51.316Z,69.11
2022-12-03T15:46:38.583Z,69.12
2022-12-03T15:48:01.510Z,69.23
2022-12-03T15:49:24.287Z,69.16
2022-12-03T15:50:52.025Z,69.29
2022-12-03T15:52:14.246Z,69.44
2022-12-03T15:53:36.587Z,69.29
2022-12-03T15:54:58.289Z,69.38
2022-12-03T15:56:20.672Z,69.39
2022-12-03T15:57:44.868Z,69.41
2022-12-03T15:59:06.639Z,69.33
2022-12-03T16:00:28.960Z,69.17
2022-12-03T16:01:55.704Z,69.10
2022-12-03T16:03:20.825Z,69.27
2022-12-03T16:04:42.871Z,69.16
2022-12-03T16:06:12.828Z,69.42
2022-12-03T16:07:35.695Z,69.29
2022-12-03T16:09:00.699Z,69.33
2022-12-03T16:10:24.809Z,69.29
2022-12-03T16:11:50.022Z,69.46
2022-12-03T16:13:13.384Z,69.35
2022-12-03T16:14:40.378Z,69.52
2022-12-03T16:16:02.740Z,69.50
2022-12-03T16:17:29.006Z,69.67
2022-12-03T16:18:51.434Z,69.56
2022-12-03T16:20:21.814Z,69.64
2022-12-03T16:21:44.632Z,69.69
2022-12-03T16:23:07.548Z,69.55
2022-12-03T16:24:38.598Z,69.54
2022-12-03T16:26:00.634Z,69.44
2022-12-03T16:27:25.848Z,69.56
2022-12-03T16:28:56.023Z,69.67
2022-12-03T16:30:40.141Z,69.52
2022-12-03T16:32:10.573Z,69.68
2022-12-03T16:33:42.360Z,69.80
2022-12-03T16:35:13.966Z,69.79
2022-12-03T16:36:36.176Z,69.78
2022-12-03T16:38:01.100Z,69.86
2022-12-03T16:39:26.544Z,69.82
2022-12-03T16:40:48.758Z,69.87
2022-12-03T16:42:29.608Z,69.84
2022-12-03T16:44:05.562Z,69.65
2022-12-03T16:46:02.531Z,69.81
2022-12-03T16:50:29.507Z,69.64
2022-12-03T16:51:54.204Z,69.67
2022-12-03T16:53:16.511Z,69.61
2022-12-03T16:54:38.408Z,69.67
2022-12-03T16:56:04.743Z,69.90
2022-12-03T16:57:37.430Z,69.90
2022-12-03T16:59:00.925Z,70.10
2022-12-03T17:00:22.360Z,70.14
2022-12-03T17:01:44.620Z,70.07
2022-12-03T17:03:06.395Z,70.11
2022-12-03T17:04:30.973Z,70.08
2022-12-03T17:05:52.565Z,70.10
2022-12-03T17:07:14.583Z,70.16
2022-12-03T17:08:36.860Z,70.15
2022-12-03T17:09:58.152Z,70.30
2022-12-03T17:11:20.442Z,70.38
2022-12-03T17:13:08.250Z,70.37
2022-12-03T17:14:32.849Z,70.60
2022-12-03T17:15:55.616Z,70.66
2022-12-03T17:17:17.938Z,70.52
2022-12-03T17:18:40.496Z,70.34
2022-12-03T17:20:03.197Z,70.55
2022-12-03T17:21:25.433Z,70.80
2022-12-03T17:22:47.720Z,70.69
2022-12-03T17:24:10.278Z,70.64
2022-12-03T17:25:32.627Z,70.43
2022-12-03T17:26:54.458Z,70.73
2022-12-03T17:28:16.918Z,70.39
2022-12-03T17:29:40.734Z,70.34
2022-12-03T17:31:03.027Z,70.31
2022-12-03T17:32:25.482Z,70.39
2022-12-03T17:33:47.789Z,70.38
2022-12-03T17:35:17.322Z,70.20
2022-12-03T17:36:39.317Z,70.32
2022-12-03T17:38:02.674Z,70.56
2022-12-03T17:39:24.812Z,70.33
2022-12-03T17:40:47.346Z,70.20
2022-12-03T17:42:09.434Z,70.32
2022-12-03T17:43:31.193Z,70.20
2022-12-03T17:44:54.622Z,70.14
2022-12-03T17:46:19.555Z,70.19
2022-12-03T17:47:41.738Z,70.17
2022-12-03T17:49:03.860Z,70.20
2022-12-03T17:50:26.171Z,70.20
2022-12-03T17:51:48.644Z,70.26
2022-12-03T17:53:11.587Z,70.39
2022-12-03T17:54:55.124Z,70.38
2022-12-03T17:56:24.094Z,70.17
2022-12-03T17:58:56.466Z,70.33
2022-12-03T18:00:49.308Z,70.32
2022-12-03T18:02:16.040Z,70.08
2022-12-03T18:03:51.346Z,70.10
2022-12-03T18:05:14.339Z,69.92
2022-12-03T18:06:41.884Z,70.08
2022-12-03T18:08:04.739Z,70.07
2022-12-03T18:09:30.414Z,69.94
2022-12-03T18:10:52.415Z,69.82
2022-12-03T18:12:14.851Z,69.97
2022-12-03T18:13:37.207Z,69.98
2022-12-03T18:14:59.493Z,69.89
2022-12-03T18:16:23.761Z,69.82
2022-12-03T18:17:45.556Z,69.94
2022-12-03T18:19:08.194Z,70.01
2022-12-03T18:20:30.255Z,69.98
2022-12-03T18:21:53.037Z,70.21
2022-12-03T18:23:16.339Z,69.77
2022-12-03T18:24:38.360Z,69.96
2022-12-03T18:26:02.230Z,69.72
2022-12-03T18:27:24.964Z,70.05
2022-12-03T18:28:46.978Z,69.76
2022-12-03T18:30:09.977Z,69.75
2022-12-03T18:31:33.745Z,69.80
2022-12-03T18:32:56.125Z,69.87
2022-12-03T18:34:18.429Z,69.49
2022-12-03T18:35:41.001Z,69.77
2022-12-03T18:37:06.647Z,69.65
2022-12-03T18:38:35.465Z,69.55
2022-12-03T18:40:00.357Z,69.50
2022-12-03T18:41:24.120Z,69.41
2022-12-03T18:42:46.625Z,69.57
2022-12-03T18:44:12.423Z,69.46